Time;durP1;ratioP1;P1;durP2;ratioP2;P2;SDS_P1;SDS_P2;PMS_P1;PMS_P2;Temp;Humidity;BMP_temperature;BMP_pressure;BME280_temperature;BME280_humidity;BME280_pressure;Samples;Min_cycle;Max_cycle;Signal;HPM_P1;HPM_P2
2023/05/28 00:02:12;;;;;;;21.20;8.85;;;14.00;99.90;;;;;;5054650;28;20043;-70
2023/05/28 00:04:37;;;;;;;17.75;7.82;;;14.00;99.90;;;;;;5048302;28;20053;-71
2023/05/28 00:07:03;;;;;;;19.48;8.13;;;13.90;99.90;;;;;;5056821;28;20060;-70
2023/05/28 00:09:29;;;;;;;20.33;8.38;;;13.80;99.90;;;;;;5057888;28;20039;-71
2023/05/28 00:11:56;;;;;;;18.23;8.82;;;13.80;99.90;;;;;;5058918;28;20051;-71
2023/05/28 00:14:22;;;;;;;19.30;8.88;;;13.70;99.90;;;;;;5058740;28;20040;-71
2023/05/28 00:16:47;;;;;;;21.15;9.10;;;13.70;99.90;;;;;;5061104;28;20045;-70
2023/05/28 00:19:13;;;;;;;16.15;8.55;;;13.70;99.90;;;;;;5059194;28;20044;-70
2023/05/28 00:21:39;;;;;;;20.63;9.20;;;13.50;99.90;;;;;;5047649;28;20056;-70
2023/05/28 00:24:05;;;;;;;25.00;9.85;;;13.60;99.90;;;;;;5058320;28;20045;-71
2023/05/28 00:26:30;;;;;;;16.15;8.80;;;13.50;99.90;;;;;;5049545;28;20093;-69
2023/05/28 00:28:56;;;;;;;16.65;9.02;;;13.50;99.90;;;;;;5051788;28;20044;-70
2023/05/28 00:31:22;;;;;;;21.45;9.60;;;13.50;99.90;;;;;;5067742;28;20040;-70
2023/05/28 00:33:47;;;;;;;21.77;9.45;;;13.50;99.90;;;;;;5059044;28;20525;-70
2023/05/28 00:36:13;;;;;;;19.17;9.45;;;13.40;99.90;;;;;;5055142;28;20036;-70
2023/05/28 00:38:39;;;;;;;21.23;9.18;;;13.30;99.90;;;;;;5052086;28;20474;-71
2023/05/28 00:41:05;;;;;;;17.77;9.05;;;13.30;99.90;;;;;;5047612;28;20105;-69
2023/05/28 00:43:31;;;;;;;18.35;9.00;;;13.20;99.90;;;;;;5050904;28;20080;-71
2023/05/28 00:46:01;;;;;;;18.48;9.32;;;13.20;99.90;;;;;;5055360;28;20109;-71
2023/05/28 00:48:28;;;;;;;21.40;9.40;;;13.10;99.90;;;;;;5057067;28;20042;-70
2023/05/28 00:50:54;;;;;;;20.40;9.50;;;13.10;99.90;;;;;;5037833;28;20409;-70
2023/05/28 00:53:19;;;;;;;18.15;8.98;;;13.00;99.90;;;;;;5037070;28;20045;-68
2023/05/28 00:55:46;;;;;;;21.92;9.07;;;13.00;99.90;;;;;;5046230;28;20090;-69
2023/05/28 00:58:13;;;;;;;17.98;8.68;;;13.00;99.90;;;;;;5046387;28;20044;-71
2023/05/28 01:00:42;;;;;;;17.50;9.60;;;13.00;99.90;;;;;;5039917;28;20052;-70
2023/05/28 01:03:09;;;;;;;17.38;9.50;;;12.90;99.90;;;;;;5041135;28;20083;-71
2023/05/28 01:05:35;;;;;;;17.93;9.00;;;13.00;99.90;;;;;;5038123;28;20527;-70
2023/05/28 01:08:02;;;;;;;20.67;9.38;;;13.00;99.90;;;;;;5046401;28;20086;-71
2023/05/28 01:10:29;;;;;;;;;;;13.00;99.90;;;;;;5048835;28;20127;-72
2023/05/28 01:12:56;;;;;;;18.75;9.32;;;12.90;99.90;;;;;;5061841;28;19924;-70
2023/05/28 01:15:23;;;;;;;22.42;9.98;;;12.90;99.90;;;;;;5057012;28;20087;-70
2023/05/28 01:17:52;;;;;;;18.38;9.10;;;12.90;99.90;;;;;;5060762;28;20028;-69
2023/05/28 01:20:18;;;;;;;18.50;9.40;;;12.80;99.90;;;;;;5058339;28;20486;-71
2023/05/28 01:22:55;;;;;;;20.30;9.48;;;12.80;99.90;;;;;;5062772;28;20052;-71
2023/05/28 01:25:21;;;;;;;;;;;12.80;99.90;;;;;;5063168;28;20044;-71
2023/05/28 01:27:47;;;;;;;19.88;10.32;;;12.80;99.90;;;;;;5058542;28;19929;-71
2023/05/28 01:30:13;;;;;;;21.65;10.45;;;12.70;99.90;;;;;;5043735;28;20053;-70
2023/05/28 01:32:39;;;;;;;17.20;9.55;;;12.70;99.90;;;;;;5043770;28;20498;-69
2023/05/28 01:35:07;;;;;;;21.52;10.00;;;12.80;99.90;;;;;;5062941;28;20108;-70
2023/05/28 01:37:36;;;;;;;18.58;9.52;;;12.70;99.90;;;;;;5044417;28;20040;-70
2023/05/28 01:40:02;;;;;;;17.85;9.77;;;12.70;99.90;;;;;;5053206;28;20067;-70
2023/05/28 01:42:30;;;;;;;20.15;10.50;;;12.70;99.90;;;;;;5059552;28;20055;-70
2023/05/28 01:44:57;;;;;;;22.52;10.20;;;12.60;99.90;;;;;;5050997;28;20045;-71
2023/05/28 01:47:24;;;;;;;20.17;9.98;;;12.60;99.90;;;;;;5062958;28;20041;-70
2023/05/28 01:49:50;;;;;;;17.38;10.02;;;12.60;99.90;;;;;;5048708;28;20068;-70
2023/05/28 01:52:16;;;;;;;20.83;11.02;;;12.50;99.90;;;;;;5045884;28;20118;-71
2023/05/28 01:54:42;;;;;;;19.63;10.43;;;12.50;99.90;;;;;;5061742;28;20050;-71
2023/05/28 01:57:07;;;;;;;21.73;10.02;;;12.40;99.90;;;;;;5062030;28;20384;-70
2023/05/28 01:59:33;;;;;;;20.77;10.40;;;12.40;99.90;;;;;;5068658;28;20047;-70
2023/05/28 02:01:58;;;;;;;19.83;10.20;;;12.40;99.90;;;;;;5063732;28;20043;-70
2023/05/28 02:04:24;;;;;;;17.48;10.00;;;12.30;99.90;;;;;;5052748;28;20056;-70
2023/05/28 02:06:51;;;;;;;19.90;10.50;;;12.30;99.90;;;;;;5051785;28;20048;-70
2023/05/28 02:09:16;;;;;;;18.55;10.10;;;12.30;99.90;;;;;;5063610;28;20044;-70
2023/05/28 02:11:42;;;;;;;16.45;9.50;;;12.20;99.90;;;;;;5053677;28;20045;-69
2023/05/28 02:14:09;;;;;;;21.92;10.77;;;12.20;99.90;;;;;;5052017;28;20339;-70
2023/05/28 02:16:35;;;;;;;20.58;9.98;;;12.10;99.90;;;;;;5058931;28;20075;-70
2023/05/28 02:19:00;;;;;;;19.63;10.68;;;12.10;99.90;;;;;;5055855;28;20044;-71
2023/05/28 02:21:28;;;;;;;16.27;9.63;;;12.10;99.90;;;;;;5048586;28;20047;-70
2023/05/28 02:23:53;;;;;;;20.63;10.55;;;12.00;99.90;;;;;;5055024;28;20155;-71
2023/05/28 02:26:20;;;;;;;17.25;10.10;;;12.00;99.90;;;;;;5056813;28;21699;-70
2023/05/28 02:28:45;;;;;;;18.27;9.85;;;12.10;99.90;;;;;;5055965;28;20443;-71
2023/05/28 02:31:12;;;;;;;21.45;11.45;;;12.00;99.90;;;;;;5058216;28;20052;-70
2023/05/28 02:33:39;;;;;;;19.15;10.05;;;11.90;99.90;;;;;;5053860;28;20051;-70
2023/05/28 02:36:06;;;;;;;21.70;10.38;;;11.90;99.90;;;;;;5055789;28;20511;-70
2023/05/28 02:38:32;;;;;;;18.70;10.65;;;11.80;99.90;;;;;;5046335;28;20036;-71
2023/05/28 02:40:57;;;;;;;20.75;11.25;;;11.80;99.90;;;;;;5054895;28;20052;-70
2023/05/28 02:43:23;;;;;;;21.30;10.80;;;11.70;99.90;;;;;;5049426;28;20048;-71
2023/05/28 02:45:49;;;;;;;21.70;11.20;;;11.60;99.90;;;;;;5043438;28;20139;-70
2023/05/28 02:48:14;;;;;;;22.95;11.18;;;11.60;99.90;;;;;;5050282;28;20600;-70
2023/05/28 02:50:40;;;;;;;22.50;11.10;;;11.60;99.90;;;;;;5053052;28;20491;-70
2023/05/28 02:53:05;;;;;;;19.55;10.88;;;11.60;99.90;;;;;;5046176;28;20490;-71
2023/05/28 02:55:31;;;;;;;20.45;11.25;;;11.60;99.90;;;;;;5045777;28;20037;-70
2023/05/28 02:57:57;;;;;;;24.80;11.18;;;11.60;99.90;;;;;;5056638;28;20060;-71
2023/05/28 03:00:22;;;;;;;19.13;10.73;;;11.70;99.90;;;;;;5054201;28;20049;-70
2023/05/28 03:02:48;;;;;;;23.00;11.30;;;11.70;99.90;;;;;;5051205;28;20127;-71
2023/05/28 03:05:14;;;;;;;20.85;11.50;;;11.60;99.90;;;;;;5050635;28;20056;-70
2023/05/28 03:07:40;;;;;;;21.85;11.30;;;11.60;99.90;;;;;;5052985;28;21129;-70
2023/05/28 03:10:07;;;;;;;19.67;10.55;;;11.70;99.90;;;;;;5051368;28;20084;-70
2023/05/28 03:12:32;;;;;;;18.47;11.87;;;11.70;99.90;;;;;;5063775;28;20050;-71
2023/05/28 03:14:58;;;;;;;17.58;10.68;;;11.70;99.90;;;;;;5055544;28;20064;-69
2023/05/28 03:17:24;;;;;;;17.50;11.35;;;11.70;99.90;;;;;;5069462;28;20035;-69
2023/05/28 03:19:49;;;;;;;22.10;11.95;;;11.70;99.90;;;;;;5049067;28;20049;-69
2023/05/28 03:22:16;;;;;;;22.73;11.13;;;11.70;99.90;;;;;;5053524;28;20093;-70
2023/05/28 03:24:42;;;;;;;21.87;12.60;;;11.70;99.90;;;;;;5066579;28;20052;-70
2023/05/28 03:27:07;;;;;;;20.60;11.48;;;11.70;99.90;;;;;;5065974;28;20087;-71
2023/05/28 03:29:33;;;;;;;21.45;12.15;;;11.70;99.90;;;;;;5064672;28;20044;-70
2023/05/28 03:31:59;;;;;;;18.58;10.82;;;11.70;99.90;;;;;;5054426;28;20052;-72
2023/05/28 03:34:25;;;;;;;21.08;12.00;;;11.70;99.90;;;;;;5050182;28;20049;-70
2023/05/28 03:36:51;;;;;;;22.95;11.25;;;11.70;99.90;;;;;;5066209;28;20067;-70
2023/05/28 03:39:16;;;;;;;19.10;11.40;;;11.70;99.90;;;;;;5057550;28;20057;-69
2023/05/28 03:41:44;;;;;;;21.45;12.05;;;11.70;99.90;;;;;;5063552;28;20048;-70
2023/05/28 03:44:09;;;;;;;25.88;12.80;;;11.70;99.90;;;;;;5055473;28;20048;-71
2023/05/28 03:46:35;;;;;;;21.88;11.60;;;11.70;99.90;;;;;;5059486;28;20050;-70
2023/05/28 03:49:01;;;;;;;22.50;12.95;;;11.70;99.90;;;;;;5062202;28;20056;-70
2023/05/28 03:51:27;;;;;;;21.45;12.32;;;11.70;99.90;;;;;;5053381;28;20052;-70
2023/05/28 03:53:52;;;;;;;23.52;12.05;;;11.80;99.90;;;;;;5058386;28;20064;-69
2023/05/28 03:56:19;;;;;;;22.88;11.90;;;11.80;99.90;;;;;;5061710;28;20375;-70
2023/05/28 03:58:45;;;;;;;23.48;11.80;;;11.80;99.90;;;;;;5064394;28;20440;-69
2023/05/28 04:01:12;;;;;;;20.88;11.88;;;11.80;99.90;;;;;;5056739;28;20433;-71
2023/05/28 04:03:37;;;;;;;22.27;12.20;;;11.70;99.90;;;;;;5054049;28;20048;-70
2023/05/28 04:06:03;;;;;;;22.75;12.45;;;11.70;99.90;;;;;;5048792;28;20076;-70
2023/05/28 04:08:29;;;;;;;19.88;11.98;;;11.80;99.90;;;;;;5060116;28;20045;-70
2023/05/28 04:10:55;;;;;;;21.27;12.43;;;11.80;99.90;;;;;;5059856;28;20452;-70
2023/05/28 04:13:22;;;;;;;21.52;12.73;;;11.90;99.90;;;;;;5060226;28;20426;-70
2023/05/28 04:15:47;;;;;;;24.37;12.10;;;11.90;99.90;;;;;;5063554;28;20044;-70
2023/05/28 04:18:13;;;;;;;20.70;12.38;;;11.90;99.90;;;;;;5053019;28;20129;-70
2023/05/28 04:20:39;;;;;;;21.75;11.85;;;11.90;99.90;;;;;;5048898;28;20063;-71
2023/05/28 04:23:04;;;;;;;21.10;12.13;;;11.90;99.90;;;;;;5047874;28;20040;-70
2023/05/28 04:25:31;;;;;;;22.45;12.52;;;12.00;99.90;;;;;;5060214;28;20052;-70
2023/05/28 04:27:56;;;;;;;23.90;12.35;;;12.00;99.90;;;;;;5045130;28;20138;-71
2023/05/28 04:30:23;;;;;;;24.42;12.82;;;12.00;99.90;;;;;;5050059;28;20480;-71
2023/05/28 04:32:52;;;;;;;25.60;13.82;;;12.00;99.90;;;;;;5055749;28;20055;-70
2023/05/28 04:35:19;;;;;;;21.00;12.07;;;12.00;99.90;;;;;;5044727;28;20141;-71
2023/05/28 04:37:45;;;;;;;21.38;12.50;;;12.10;99.90;;;;;;5054423;28;20048;-69
2023/05/28 04:40:11;;;;;;;25.15;13.13;;;12.10;99.90;;;;;;5054510;28;20089;-71
2023/05/28 04:42:40;;;;;;;19.03;12.10;;;12.10;99.90;;;;;;5048246;28;20097;-71
2023/05/28 04:45:07;;;;;;;23.45;12.43;;;12.10;99.90;;;;;;5058853;28;20422;-70
2023/05/28 04:47:33;;;;;;;;;;;12.10;99.90;;;;;;5060816;28;20119;-72
2023/05/28 04:49:59;;;;;;;24.13;12.45;;;12.20;99.90;;;;;;5051707;28;20467;-70
2023/05/28 04:52:25;;;;;;;22.10;12.18;;;12.20;99.90;;;;;;5051587;28;20048;-70
2023/05/28 04:54:50;;;;;;;25.73;13.55;;;12.30;99.90;;;;;;5046620;28;20101;-71
2023/05/28 04:57:16;;;;;;;24.58;13.43;;;12.30;99.90;;;;;;5044470;28;20479;-70
2023/05/28 04:59:42;;;;;;;22.70;12.02;;;12.40;99.90;;;;;;5053411;28;20044;-72
2023/05/28 05:02:08;;;;;;;26.98;13.27;;;12.40;99.90;;;;;;5057864;28;20047;-71
2023/05/28 05:04:40;;;;;;;20.95;11.75;;;12.40;99.90;;;;;;5057076;28;20083;-70
2023/05/28 05:07:05;;;;;;;23.08;13.15;;;12.40;99.90;;;;;;5043964;28;20114;-72
2023/05/28 05:09:31;;;;;;;20.70;12.32;;;12.40;99.90;;;;;;5052780;28;20850;-70
2023/05/28 05:11:57;;;;;;;24.02;13.10;;;12.50;99.90;;;;;;5063036;28;20454;-71
2023/05/28 05:14:23;;;;;;;23.88;12.45;;;12.50;99.90;;;;;;5052171;28;20070;-70
2023/05/28 05:16:48;;;;;;;24.52;12.75;;;12.50;99.90;;;;;;5055660;28;20044;-68
2023/05/28 05:19:15;;;;;;;25.95;13.00;;;12.50;99.90;;;;;;5060307;28;20044;-71
2023/05/28 05:21:41;;;;;;;20.58;12.15;;;12.60;99.90;;;;;;5052241;28;20048;-70
2023/05/28 05:24:07;;;;;;;22.50;12.77;;;12.60;99.90;;;;;;5047838;28;20048;-70
2023/05/28 05:26:32;;;;;;;27.23;13.70;;;12.60;99.90;;;;;;5051617;28;20058;-70
2023/05/28 05:28:58;;;;;;;21.98;12.57;;;12.60;99.90;;;;;;5058884;28;20853;-70
2023/05/28 05:31:24;;;;;;;21.50;12.77;;;12.70;99.90;;;;;;5044318;28;20383;-70
2023/05/28 05:33:50;;;;;;;21.15;13.15;;;12.80;99.90;;;;;;5054009;28;20047;-68
2023/05/28 05:36:16;;;;;;;20.50;12.35;;;12.80;99.90;;;;;;5053235;28;20048;-71
2023/05/28 05:38:41;;;;;;;23.42;12.77;;;12.90;99.90;;;;;;5055808;28;20052;-70
2023/05/28 05:41:07;;;;;;;23.27;13.27;;;12.90;99.90;;;;;;5042775;28;20064;-71
2023/05/28 05:43:33;;;;;;;20.55;12.45;;;12.90;99.90;;;;;;5051299;28;20494;-71
2023/05/28 05:45:58;;;;;;;25.95;12.70;;;13.00;99.90;;;;;;5054581;28;20106;-71
2023/05/28 05:48:27;;;;;;;26.83;13.63;;;13.00;99.90;;;;;;5050983;28;20055;-71
2023/05/28 05:50:58;;;;;;;22.98;12.95;;;13.10;99.90;;;;;;5056565;28;20415;-72
2023/05/28 05:53:24;;;;;;;22.48;13.20;;;13.10;99.90;;;;;;5059109;28;20048;-69
2023/05/28 05:55:51;;;;;;;21.65;12.70;;;13.10;99.90;;;;;;5049237;28;20055;-70
2023/05/28 05:58:16;;;;;;;26.03;13.57;;;13.10;99.90;;;;;;5060850;28;20065;-70
2023/05/28 06:00:42;;;;;;;21.30;12.70;;;13.10;99.90;;;;;;5056960;28;20688;-70
2023/05/28 06:03:08;;;;;;;22.05;12.80;;;13.20;99.90;;;;;;5049715;28;20049;-71
2023/05/28 06:05:34;;;;;;;21.17;12.95;;;13.30;99.90;;;;;;5048754;28;20051;-69
2023/05/28 06:08:02;;;;;;;22.98;12.82;;;13.30;99.90;;;;;;5051154;28;20036;-69
2023/05/28 06:10:29;;;;;;;21.25;12.43;;;13.40;99.90;;;;;;5047218;28;20037;-70
2023/05/28 06:12:55;;;;;;;20.73;12.65;;;13.50;99.90;;;;;;5056572;28;20052;-69
2023/05/28 06:15:22;;;;;;;21.67;13.55;;;13.60;99.90;;;;;;5050638;28;20047;-71
2023/05/28 06:17:48;;;;;;;21.33;12.48;;;13.70;99.90;;;;;;5057858;28;20044;-71
2023/05/28 06:20:14;;;;;;;21.15;11.65;;;13.70;99.90;;;;;;5052724;28;20052;-71
2023/05/28 06:22:40;;;;;;;24.47;12.47;;;13.80;99.90;;;;;;5059491;28;20597;-71
2023/05/28 06:25:08;;;;;;;18.75;11.93;;;13.90;99.90;;;;;;5052432;28;20056;-70
2023/05/28 06:27:35;;;;;;;23.90;12.15;;;14.00;99.90;;;;;;5060512;28;20078;-71
2023/05/28 06:30:01;;;;;;;18.90;11.32;;;14.10;99.90;;;;;;5064604;28;20151;-71
2023/05/28 06:32:27;;;;;;;20.30;10.90;;;14.20;99.90;;;;;;5057082;28;20064;-69
2023/05/28 06:34:53;;;;;;;20.02;10.32;;;14.30;99.90;;;;;;5053144;28;20469;-70
2023/05/28 06:37:18;;;;;;;17.80;10.05;;;14.30;99.90;;;;;;5056474;28;20578;-73
2023/05/28 06:39:44;;;;;;;17.33;10.65;;;14.40;99.90;;;;;;5044915;28;20150;-73
2023/05/28 06:42:10;;;;;;;18.38;10.32;;;14.50;99.90;;;;;;5051563;28;20036;-74
2023/05/28 06:44:36;;;;;;;19.85;9.70;;;14.60;99.90;;;;;;5058370;28;20044;-71
2023/05/28 06:47:01;;;;;;;16.85;10.38;;;14.70;99.90;;;;;;5045633;28;20495;-72
2023/05/28 06:49:27;;;;;;;18.42;8.98;;;14.80;99.90;;;;;;5056467;28;20088;-72
2023/05/28 06:51:53;;;;;;;16.83;9.10;;;14.80;99.90;;;;;;5053281;28;20055;-72
2023/05/28 06:54:18;;;;;;;19.55;9.32;;;14.80;99.90;;;;;;5054415;28;20383;-71
2023/05/28 06:56:44;;;;;;;14.88;8.35;;;14.90;99.90;;;;;;5044762;28;20058;-71
2023/05/28 06:59:10;;;;;;;21.08;9.10;;;15.00;99.90;;;;;;5040078;28;20040;-70
2023/05/28 07:01:36;;;;;;;19.23;8.82;;;15.10;99.90;;;;;;5056991;28;20075;-70
2023/05/28 07:04:01;;;;;;;17.00;8.48;;;15.20;99.90;;;;;;5063427;28;20056;-71
2023/05/28 07:06:27;;;;;;;15.38;8.68;;;15.30;99.90;;;;;;5053932;28;20044;-73
2023/05/28 07:08:53;;;;;;;15.30;7.72;;;15.40;99.90;;;;;;5061999;28;20074;-73
2023/05/28 07:11:18;;;;;;;15.75;9.02;;;15.40;99.90;;;;;;5062383;28;20040;-74
2023/05/28 07:13:44;;;;;;;16.92;8.13;;;15.50;99.90;;;;;;5047021;28;20040;-75
2023/05/28 07:16:10;;;;;;;18.05;8.40;;;15.50;99.90;;;;;;5037499;28;20053;-73
2023/05/28 07:18:36;;;;;;;13.27;8.13;;;15.50;99.90;;;;;;5058048;28;20032;-76
2023/05/28 07:21:03;;;;;;;15.95;8.23;;;15.50;99.90;;;;;;5048446;28;20491;-73
2023/05/28 07:23:28;;;;;;;18.67;8.10;;;15.50;99.90;;;;;;5049206;28;20114;-73
2023/05/28 07:25:54;;;;;;;16.95;7.32;;;15.50;99.90;;;;;;5045154;28;20483;-75
2023/05/28 07:28:20;;;;;;;18.08;8.07;;;15.50;99.90;;;;;;5041837;28;21397;-73
2023/05/28 07:30:46;;;;;;;17.27;8.10;;;15.50;99.90;;;;;;5065228;28;20036;-73
2023/05/28 07:33:11;;;;;;;14.90;7.95;;;15.60;99.90;;;;;;5036729;28;20045;-74
2023/05/28 07:35:37;;;;;;;16.20;7.97;;;15.60;99.90;;;;;;5055500;28;21187;-71
2023/05/28 07:38:03;;;;;;;13.45;7.30;;;15.70;99.90;;;;;;5063364;28;20105;-72
2023/05/28 07:40:32;;;;;;;16.60;7.90;;;15.80;99.90;;;;;;5049103;28;20062;-73
2023/05/28 07:42:57;;;;;;;16.73;7.88;;;15.90;99.90;;;;;;5058390;28;20045;-74
2023/05/28 07:45:23;;;;;;;16.52;7.38;;;16.00;99.90;;;;;;5058601;28;20043;-73
2023/05/28 07:47:49;;;;;;;13.50;7.13;;;16.00;99.90;;;;;;5064195;28;20452;-71
2023/05/28 07:50:15;;;;;;;16.20;7.38;;;16.10;99.90;;;;;;5060562;28;20178;-71
2023/05/28 07:52:40;;;;;;;20.50;8.15;;;16.20;99.90;;;;;;5070322;28;20052;-70
2023/05/28 07:55:07;;;;;;;16.13;6.93;;;16.40;99.90;;;;;;5073290;28;20109;-70
2023/05/28 07:57:33;;;;;;;16.98;7.55;;;16.50;99.90;;;;;;5073661;28;20402;-70
2023/05/28 08:00:00;;;;;;;13.40;7.22;;;16.60;99.90;;;;;;5069529;28;20097;-71
2023/05/28 08:02:26;;;;;;;;;;;16.70;99.90;;;;;;5054100;28;20037;-70
2023/05/28 08:04:53;;;;;;;14.95;7.40;;;16.70;99.90;;;;;;5061184;28;20778;-70
2023/05/28 08:07:19;;;;;;;17.38;7.50;;;16.90;99.90;;;;;;5072545;28;20088;-69
2023/05/28 08:09:45;;;;;;;19.65;8.15;;;16.90;99.90;;;;;;5071320;28;20121;-70
2023/05/28 08:12:10;;;;;;;16.00;7.82;;;17.10;99.90;;;;;;5072610;28;20071;-68
2023/05/28 08:14:36;;;;;;;14.75;7.38;;;17.10;99.90;;;;;;5060670;28;20059;-70
2023/05/28 08:17:02;;;;;;;14.10;7.88;;;17.20;99.90;;;;;;5068711;28;20044;-70
2023/05/28 08:19:28;;;;;;;15.35;7.25;;;17.30;99.90;;;;;;5061159;28;20060;-71
2023/05/28 08:21:54;;;;;;;15.82;7.53;;;17.30;99.90;;;;;;5056876;28;20052;-71
2023/05/28 08:24:20;;;;;;;14.50;7.32;;;17.40;99.90;;;;;;5061632;28;20407;-70
2023/05/28 08:26:46;;;;;;;16.05;7.47;;;17.60;99.90;;;;;;5068145;28;20047;-70
2023/05/28 08:29:11;;;;;;;16.63;7.20;;;17.70;99.90;;;;;;5062467;28;20028;-69
2023/05/28 08:31:37;;;;;;;14.57;7.57;;;17.70;99.90;;;;;;5063787;28;20122;-71
2023/05/28 08:34:03;;;;;;;16.02;7.78;;;17.80;99.90;;;;;;5062521;28;20067;-69
2023/05/28 08:36:29;;;;;;;14.50;7.13;;;17.80;99.90;;;;;;5066803;28;20139;-71
2023/05/28 08:38:55;;;;;;;14.37;6.97;;;17.80;99.90;;;;;;5070007;28;20123;-69
2023/05/28 08:41:23;;;;;;;16.25;7.18;;;17.80;99.90;;;;;;5057889;28;20056;-71
2023/05/28 08:43:49;;;;;;;19.85;7.07;;;17.90;99.90;;;;;;5064166;28;20142;-72
2023/05/28 08:46:15;;;;;;;16.63;6.80;;;17.90;99.90;;;;;;5049978;28;20040;-71
2023/05/28 08:48:42;;;;;;;16.70;7.20;;;18.00;99.90;;;;;;5067575;28;20502;-69
2023/05/28 08:51:08;;;;;;;18.05;7.40;;;18.10;99.90;;;;;;5061032;28;20044;-70
2023/05/28 08:53:45;;;;;;;17.03;7.33;;;18.20;99.90;;;;;;5067866;28;20089;-68
2023/05/28 08:56:11;;;;;;;15.30;7.10;;;18.30;99.90;;;;;;5054015;28;20519;-70
2023/05/28 08:58:38;;;;;;;16.80;7.43;;;18.40;99.90;;;;;;5061299;28;20834;-70
2023/05/28 09:01:10;;;;;;;17.92;7.40;;;18.40;99.90;;;;;;5046603;28;20503;-72
2023/05/28 09:03:41;;;;;;;15.45;7.50;;;18.50;99.90;;;;;;5053466;28;20052;-69
2023/05/28 09:06:08;;;;;;;17.13;7.15;;;18.50;99.90;;;;;;5040432;28;20468;-70
2023/05/28 09:08:34;;;;;;;19.02;7.82;;;18.60;99.90;;;;;;5048656;28;20044;-69
2023/05/28 09:11:14;;;;;;;14.02;6.60;;;18.70;99.90;;;;;;5043786;28;20048;-69
2023/05/28 09:13:45;;;;;;;16.30;7.15;;;18.80;99.90;;;;;;5038570;28;20553;-71
2023/05/28 09:16:20;;;;;;;11.88;6.32;;;18.80;99.90;;;;;;5036933;28;20499;-72
2023/05/28 09:18:48;;;;;;;13.15;7.07;;;18.90;99.90;;;;;;5049884;28;20048;-71
2023/05/28 09:21:14;;;;;;;13.13;6.85;;;18.90;99.90;;;;;;5047327;28;20110;-71
2023/05/28 09:23:39;;;;;;;15.60;6.85;;;18.90;99.90;;;;;;5049274;28;20041;-72
2023/05/28 09:26:09;;;;;;;14.82;6.90;;;19.00;99.90;;;;;;5046243;28;20179;-72
2023/05/28 09:28:35;;;;;;;15.10;7.20;;;19.10;99.90;;;;;;5059531;28;20044;-72
2023/05/28 09:31:05;;;;;;;16.02;7.13;;;19.20;99.90;;;;;;5061257;28;20143;-71
2023/05/28 09:33:32;;;;;;;14.05;6.90;;;19.20;99.90;;;;;;5058860;28;20055;-73
2023/05/28 09:36:00;;;;;;;16.33;6.82;;;19.30;99.90;;;;;;5041808;28;20048;-72
2023/05/28 09:38:26;;;;;;;15.77;6.93;;;19.30;99.90;;;;;;5040201;28;20830;-70
2023/05/28 09:40:57;;;;;;;14.68;6.90;;;19.40;99.90;;;;;;5054726;28;20041;-71
2023/05/28 09:43:29;;;;;;;12.88;6.82;;;19.50;99.90;;;;;;5067572;28;20048;-71
2023/05/28 09:46:07;;;;;;;12.95;6.90;;;19.50;99.90;;;;;;5035361;28;20045;-71
2023/05/28 09:48:34;;;;;;;15.63;7.25;;;19.50;99.90;;;;;;5035468;28;20135;-71
2023/05/28 09:51:04;;;;;;;13.27;6.63;;;19.60;99.80;;;;;;5038065;28;20048;-71
2023/05/28 09:53:36;;;;;;;16.25;6.30;;;19.70;99.90;;;;;;5050556;28;20047;-72
2023/05/28 09:56:02;;;;;;;14.90;7.00;;;19.70;99.90;;;;;;5047853;28;20048;-71
2023/05/28 09:58:34;;;;;;;14.02;7.18;;;19.90;99.90;;;;;;5041052;28;20048;-72
2023/05/28 10:01:24;;;;;;;14.38;6.95;;;20.00;99.90;;;;;;5051467;28;20041;-72
2023/05/28 10:03:58;;;;;;;13.45;7.45;;;20.00;99.50;;;;;;5043568;28;20090;-72
2023/05/28 10:06:25;;;;;;;13.68;7.07;;;20.00;99.80;;;;;;5043034;28;20493;-72
2023/05/28 10:08:53;;;;;;;14.90;7.03;;;20.10;99.50;;;;;;5060421;28;20052;-70
2023/05/28 10:11:28;;;;;;;18.25;7.65;;;20.10;99.60;;;;;;5057305;28;20096;-72
2023/05/28 10:13:57;;;;;;;17.10;6.88;;;20.10;99.00;;;;;;5036250;28;20064;-69
2023/05/28 10:16:24;;;;;;;13.05;6.40;;;20.20;99.30;;;;;;5049600;28;20067;-71
2023/05/28 10:18:51;;;;;;;14.77;7.00;;;20.30;99.40;;;;;;5051939;28;20056;-72
2023/05/28 10:21:19;;;;;;;13.75;7.45;;;20.30;99.50;;;;;;5062956;28;20499;-71
2023/05/28 10:23:45;;;;;;;13.93;6.97;;;20.40;98.90;;;;;;5041917;28;20395;-71
2023/05/28 10:26:11;;;;;;;12.18;6.97;;;20.40;99.20;;;;;;5049059;28;20477;-72
2023/05/28 10:28:37;;;;;;;14.82;7.43;;;20.40;99.10;;;;;;5055724;28;20131;-72
2023/05/28 10:31:05;;;;;;;13.63;7.28;;;20.50;98.50;;;;;;5055060;28;20793;-72
2023/05/28 10:33:39;;;;;;;12.18;6.90;;;20.50;98.00;;;;;;5039204;28;20044;-69
2023/05/28 10:36:13;;;;;;;14.55;7.15;;;20.60;98.00;;;;;;5058748;28;20893;-71
2023/05/28 10:39:05;;;;;;;11.55;6.65;;;20.60;97.20;;;;;;5041590;28;20048;-69
2023/05/28 10:41:33;;;;;;;15.75;7.30;;;20.60;97.40;;;;;;5053322;28;20060;-70
2023/05/28 10:44:07;;;;;;;12.90;7.20;;;20.60;96.50;;;;;;5037559;28;20048;-71
2023/05/28 10:46:37;;;;;;;15.05;7.03;;;20.60;97.50;;;;;;5051175;28;20059;-72
2023/05/28 10:49:12;;;;;;;12.85;6.93;;;20.60;96.70;;;;;;5040425;28;22187;-71
2023/05/28 10:52:01;;;;;;;14.27;7.10;;;20.60;96.60;;;;;;5034127;28;20403;-71
2023/05/28 10:54:30;;;;;;;12.50;7.35;;;20.60;96.30;;;;;;5040847;28;20057;-72
2023/05/28 10:57:11;;;;;;;14.65;7.28;;;20.70;96.00;;;;;;5033280;28;20044;-72
2023/05/28 10:59:48;;;;;;;16.52;7.15;;;20.70;95.90;;;;;;5048012;28;20102;-71
2023/05/28 11:02:17;;;;;;;14.65;6.78;;;20.80;95.80;;;;;;5050053;28;20051;-71
2023/05/28 11:04:43;;;;;;;13.73;7.18;;;20.80;95.90;;;;;;5049211;28;20063;-71
2023/05/28 11:07:09;;;;;;;14.38;7.15;;;20.90;95.50;;;;;;5049889;28;20406;-70
2023/05/28 11:09:35;;;;;;;14.55;7.63;;;21.00;95.50;;;;;;5045802;28;20048;-70
2023/05/28 11:12:02;;;;;;;17.17;7.50;;;21.00;94.50;;;;;;5036859;28;20060;-70
2023/05/28 11:14:35;;;;;;;;;;;21.00;94.20;;;;;;5054655;28;20079;-70
2023/05/28 11:17:01;;;;;;;12.40;6.82;;;21.00;93.90;;;;;;5069988;28;19924;-71
2023/05/28 11:19:27;;;;;;;13.27;7.05;;;21.00;94.20;;;;;;5047303;28;20384;-69
2023/05/28 11:21:53;;;;;;;15.20;7.07;;;21.10;93.90;;;;;;5049041;28;20040;-70
2023/05/28 11:24:19;;;;;;;15.15;6.75;;;21.20;93.90;;;;;;5048208;28;20035;-70
2023/05/28 11:26:45;;;;;;;11.70;6.72;;;21.20;93.30;;;;;;5040594;28;20072;-70
2023/05/28 11:29:13;;;;;;;12.30;6.90;;;21.30;93.40;;;;;;5046461;28;20048;-72
2023/05/28 11:31:42;;;;;;;13.68;7.10;;;21.50;93.40;;;;;;5055675;28;20059;-71
2023/05/28 11:34:08;;;;;;;13.25;6.50;;;21.60;92.70;;;;;;5045782;28;20373;-72
2023/05/28 11:36:39;;;;;;;14.60;6.10;;;21.60;92.50;;;;;;5047960;28;20078;-74
2023/05/28 11:39:04;;;;;;;11.65;7.03;;;21.70;92.00;;;;;;5049927;28;20467;-72
2023/05/28 11:41:31;;;;;;;12.63;6.47;;;21.70;91.20;;;;;;5063203;28;20127;-72
2023/05/28 11:43:56;;;;;;;12.53;6.20;;;21.70;90.40;;;;;;5044245;28;20041;-72
2023/05/28 11:46:22;;;;;;;12.30;6.05;;;21.70;90.00;;;;;;5041794;28;20048;-72
2023/05/28 11:48:48;;;;;;;13.05;6.10;;;21.70;89.70;;;;;;5045079;28;20072;-72
2023/05/28 11:51:13;;;;;;;12.30;5.95;;;21.70;88.80;;;;;;5058226;28;20609;-72
2023/05/28 11:53:40;;;;;;;12.18;5.88;;;21.80;88.00;;;;;;5047229;28;20119;-72
2023/05/28 11:56:08;;;;;;;12.80;5.93;;;21.80;86.00;;;;;;5057870;28;21080;-72
2023/05/28 11:58:37;;;;;;;10.05;5.78;;;21.80;84.70;;;;;;5052741;28;20055;-72
2023/05/28 12:01:03;;;;;;;11.75;5.95;;;21.80;84.30;;;;;;5050729;28;20053;-72
2023/05/28 12:03:29;;;;;;;11.02;5.80;;;21.80;83.50;;;;;;5058492;28;20061;-72
2023/05/28 12:05:55;;;;;;;10.90;5.50;;;21.90;82.40;;;;;;5055684;28;20099;-72
2023/05/28 12:08:21;;;;;;;12.65;6.05;;;21.90;82.60;;;;;;5048592;28;20493;-72
2023/05/28 12:10:46;;;;;;;11.65;6.20;;;21.90;81.10;;;;;;5044256;28;20029;-72
2023/05/28 12:13:13;;;;;;;10.57;5.47;;;22.00;82.90;;;;;;5050951;28;20523;-72
2023/05/28 12:15:39;;;;;;;10.15;5.57;;;22.10;81.60;;;;;;5051568;28;20044;-72
2023/05/28 12:18:06;;;;;;;8.67;5.20;;;22.10;79.40;;;;;;5050725;28;20048;-72
2023/05/28 12:20:33;;;;;;;;;;;22.10;77.00;;;;;;5048239;28;20167;-72
2023/05/28 12:23:01;;;;;;;10.43;5.43;;;22.10;77.00;;;;;;5058087;28;19924;-72
2023/05/28 12:25:27;;;;;;;10.75;5.07;;;22.10;75.10;;;;;;5040645;28;20215;-72
2023/05/28 12:27:53;;;;;;;8.82;5.20;;;22.10;75.60;;;;;;5056919;28;20439;-71
2023/05/28 12:30:18;;;;;;;9.63;4.85;;;22.20;74.50;;;;;;5056587;28;20060;-71
2023/05/28 12:32:44;;;;;;;9.90;5.47;;;22.20;73.30;;;;;;5047669;28;20314;-72
2023/05/28 12:35:09;;;;;;;8.18;4.78;;;22.30;72.50;;;;;;5052429;28;20064;-71